sensor_id;sensor_type;location;lat;lon;timestamp;pressure;altitude;pressure_sealevel;temperature;humidity
28630;BME280;15817;42.130;24.762;2024-03-07T00:02:13;99873.59;;;9.37;100.00
28630;BME280;15817;42.130;24.762;2024-03-07T00:04:49;99875.34;;;9.35;100.00
28630;BME280;15817;42.130;24.762;2024-03-07T00:07:27;99877.13;;;9.40;100.00
28630;BME280;15817;42.130;24.762;2024-03-07T00:09:53;99864.75;;;9.39;100.00
28630;BME280;15817;42.130;24.762;2024-03-07T00:12:29;99859.44;;;9.39;100.00
28630;BME280;15817;42.130;24.762;2024-03-07T00:15:01;99869.19;;;9.45;100.00
28630;BME280;15817;42.130;24.762;2024-03-07T00:17:29;99858.56;;;9.39;100.00
28630;BME280;15817;42.130;24.762;2024-03-07T00:20:03;99855.91;;;9.30;100.00
28630;BME280;15817;42.130;24.762;2024-03-07T00:22:39;99863.84;;;9.37;100.00
28630;BME280;15817;42.130;24.762;2024-03-07T00:25:10;99863.88;;;9.40;100.00
28630;BME280;15817;42.130;24.762;2024-03-07T00:27:39;99859.44;;;9.38;100.00
28630;BME280;15817;42.130;24.762;2024-03-07T00:30:13;99856.78;;;9.38;100.00
28630;BME280;15817;42.130;24.762;2024-03-07T00:32:44;99853.28;;;9.34;100.00
28630;BME280;15817;42.130;24.762;2024-03-07T00:35:10;99867.41;;;9.42;100.00
28630;BME280;15817;42.130;24.762;2024-03-07T00:37:41;99867.41;;;9.39;100.00
28630;BME280;15817;42.130;24.762;2024-03-07T00:40:21;99867.41;;;9.44;100.00
28630;BME280;15817;42.130;24.762;2024-03-07T00:42:52;99863.88;;;9.40;100.00
28630;BME280;15817;42.130;24.762;2024-03-07T00:45:25;99860.31;;;9.35;100.00
28630;BME280;15817;42.130;24.762;2024-03-07T00:47:51;99864.78;;;9.33;100.00
28630;BME280;15817;42.130;24.762;2024-03-07T00:50:22;99860.31;;;9.38;100.00
28630;BME280;15817;42.130;24.762;2024-03-07T00:52:50;99871.81;;;9.50;100.00
28630;BME280;15817;42.130;24.762;2024-03-07T00:55:24;99863.88;;;9.45;100.00
28630;BME280;15817;42.130;24.762;2024-03-07T00:58:02;99847.94;;;9.40;100.00
28630;BME280;15817;42.130;24.762;2024-03-07T01:00:31;99839.97;;;9.36;100.00
28630;BME280;15817;42.130;24.762;2024-03-07T01:02:57;99843.50;;;9.35;100.00
28630;BME280;15817;42.130;24.762;2024-03-07T01:05:25;99839.13;;;9.34;100.00
28630;BME280;15817;42.130;24.762;2024-03-07T01:08:11;99842.66;;;9.34;100.00
28630;BME280;15817;42.130;24.762;2024-03-07T01:10:37;99838.22;;;9.30;100.00
28630;BME280;15817;42.130;24.762;2024-03-07T01:13:06;99838.25;;;9.21;100.00
28630;BME280;15817;42.130;24.762;2024-03-07T01:15:36;99850.63;;;9.21;100.00
28630;BME280;15817;42.130;24.762;2024-03-07T01:18:05;99850.63;;;9.18;100.00
28630;BME280;15817;42.130;24.762;2024-03-07T01:20:33;99850.63;;;9.15;100.00
28630;BME280;15817;42.130;24.762;2024-03-07T01:23:06;99855.94;;;9.08;100.00
28630;BME280;15817;42.130;24.762;2024-03-07T01:25:42;99850.59;;;9.12;100.00
28630;BME280;15817;42.130;24.762;2024-03-07T01:28:10;99840.91;;;9.07;100.00
28630;BME280;15817;42.130;24.762;2024-03-07T01:31:02;99851.50;;;9.06;100.00
28630;BME280;15817;42.130;24.762;2024-03-07T01:33:47;99856.81;;;9.06;100.00
28630;BME280;15817;42.130;24.762;2024-03-07T01:36:38;99852.41;;;9.06;100.00
28630;BME280;15817;42.130;24.762;2024-03-07T01:42:07;99872.72;;;9.17;100.00
28630;BME280;15817;42.130;24.762;2024-03-07T01:45:27;99854.16;;;9.03;100.00
28630;BME280;15817;42.130;24.762;2024-03-07T01:51:14;99851.53;;;8.88;100.00
28630;BME280;15817;42.130;24.762;2024-03-07T01:54:21;99847.94;;;8.89;100.00
28630;BME280;15817;42.130;24.762;2024-03-07T01:59:32;99847.97;;;8.96;100.00
28630;BME280;15817;42.130;24.762;2024-03-07T02:02:09;99850.63;;;8.99;100.00
28630;BME280;15817;42.130;24.762;2024-03-07T02:04:48;99847.97;;;8.98;100.00
28630;BME280;15817;42.130;24.762;2024-03-07T02:07:24;99850.59;;;9.01;100.00
28630;BME280;15817;42.130;24.762;2024-03-07T02:10:08;99857.69;;;9.02;100.00
28630;BME280;15817;42.130;24.762;2024-03-07T02:12:45;99860.34;;;9.05;100.00
28630;BME280;15817;42.130;24.762;2024-03-07T02:15:19;99859.47;;;8.88;100.00
28630;BME280;15817;42.130;24.762;2024-03-07T02:17:57;99860.34;;;8.84;100.00
28630;BME280;15817;42.130;24.762;2024-03-07T02:20:47;99859.44;;;8.89;100.00
28630;BME280;15817;42.130;24.762;2024-03-07T02:23:18;99851.53;;;8.88;100.00
28630;BME280;15817;42.130;24.762;2024-03-07T02:26:05;99868.28;;;8.91;100.00
28630;BME280;15817;42.130;24.762;2024-03-07T02:28:50;99869.19;;;8.92;100.00
28630;BME280;15817;42.130;24.762;2024-03-07T02:31:24;99855.03;;;8.85;100.00
28630;BME280;15817;42.130;24.762;2024-03-07T02:34:07;99855.03;;;8.84;100.00
28630;BME280;15817;42.130;24.762;2024-03-07T02:36:52;99843.53;;;8.80;100.00
28630;BME280;15817;42.130;24.762;2024-03-07T02:39:27;99843.56;;;8.76;100.00
28630;BME280;15817;42.130;24.762;2024-03-07T02:42:11;99841.78;;;8.84;100.00
28630;BME280;15817;42.130;24.762;2024-03-07T02:44:39;99840.88;;;8.80;100.00
28630;BME280;15817;42.130;24.762;2024-03-07T02:47:09;99840.88;;;8.73;100.00
28630;BME280;15817;42.130;24.762;2024-03-07T02:49:34;99849.72;;;8.71;100.00
28630;BME280;15817;42.130;24.762;2024-03-07T02:52:00;99844.41;;;8.68;100.00
28630;BME280;15817;42.130;24.762;2024-03-07T02:54:27;99866.50;;;8.78;100.00
28630;BME280;15817;42.130;24.762;2024-03-07T02:56:55;99848.84;;;8.74;100.00
28630;BME280;15817;42.130;24.762;2024-03-07T02:59:28;99866.50;;;8.80;100.00
28630;BME280;15817;42.130;24.762;2024-03-07T03:02:08;99852.38;;;8.75;100.00
28630;BME280;15817;42.130;24.762;2024-03-07T03:04:41;99847.09;;;8.76;100.00
28630;BME280;15817;42.130;24.762;2024-03-07T03:07:17;99845.28;;;8.70;100.00
28630;BME280;15817;42.130;24.762;2024-03-07T03:09:53;99838.22;;;8.71;100.00
28630;BME280;15817;42.130;24.762;2024-03-07T03:12:21;99846.19;;;8.69;100.00
28630;BME280;15817;42.130;24.762;2024-03-07T03:14:53;99845.31;;;8.75;100.00
28630;BME280;15817;42.130;24.762;2024-03-07T03:18:15;99837.34;;;8.67;100.00
28630;BME280;15817;42.130;24.762;2024-03-07T03:20:47;99849.75;;;8.76;100.00
28630;BME280;15817;42.130;24.762;2024-03-07T03:23:21;99847.06;;;8.68;100.00
28630;BME280;15817;42.130;24.762;2024-03-07T03:25:49;99841.75;;;8.68;100.00
28630;BME280;15817;42.130;24.762;2024-03-07T03:28:27;99844.44;;;8.73;100.00
28630;BME280;15817;42.130;24.762;2024-03-07T03:30:58;99853.25;;;8.60;100.00
28630;BME280;15817;42.130;24.762;2024-03-07T03:33:39;99846.16;;;8.60;100.00
28630;BME280;15817;42.130;24.762;2024-03-07T03:36:08;99859.44;;;8.71;100.00
28630;BME280;15817;42.130;24.762;2024-03-07T03:38:49;99853.25;;;8.72;100.00
28630;BME280;15817;42.130;24.762;2024-03-07T03:41:31;99853.25;;;8.70;100.00
28630;BME280;15817;42.130;24.762;2024-03-07T03:43:59;99847.06;;;8.59;100.00
28630;BME280;15817;42.130;24.762;2024-03-07T03:46:25;99850.56;;;8.57;100.00
28630;BME280;15817;42.130;24.762;2024-03-07T03:49:09;99860.31;;;8.64;100.00
28630;BME280;15817;42.130;24.762;2024-03-07T03:52:13;99858.53;;;8.66;100.00
28630;BME280;15817;42.130;24.762;2024-03-07T03:54:56;99855.00;;;8.52;100.00
28630;BME280;15817;42.130;24.762;2024-03-07T03:58:04;99847.06;;;8.53;100.00
28630;BME280;15817;42.130;24.762;2024-03-07T04:00:57;99844.41;;;8.53;100.00
28630;BME280;15817;42.130;24.762;2024-03-07T04:03:46;99855.00;;;8.59;100.00
28630;BME280;15817;42.130;24.762;2024-03-07T04:06:28;99847.91;;;8.57;100.00
28630;BME280;15817;42.130;24.762;2024-03-07T04:09:25;99857.63;;;8.44;100.00
28630;BME280;15817;42.130;24.762;2024-03-07T04:12:32;99845.25;;;8.43;100.00
28630;BME280;15817;42.130;24.762;2024-03-07T04:15:41;99848.78;;;8.47;100.00
28630;BME280;15817;42.130;24.762;2024-03-07T04:18:36;99843.47;;;8.38;100.00
28630;BME280;15817;42.130;24.762;2024-03-07T04:21:27;99845.25;;;8.40;100.00
28630;BME280;15817;42.130;24.762;2024-03-07T04:24:05;99862.94;;;8.49;100.00
28630;BME280;15817;42.130;24.762;2024-03-07T04:26:37;99846.13;;;8.47;100.00
28630;BME280;15817;42.130;24.762;2024-03-07T04:32:33;99874.44;;;8.55;100.00
28630;BME280;15817;42.130;24.762;2024-03-07T04:35:06;99851.44;;;8.39;100.00
28630;BME280;15817;42.130;24.762;2024-03-07T04:38:37;99856.72;;;8.39;100.00
28630;BME280;15817;42.130;24.762;2024-03-07T04:41:27;99847.00;;;8.33;100.00
28630;BME280;15817;42.130;24.762;2024-03-07T04:44:35;99858.53;;;8.42;100.00
28630;BME280;15817;42.130;24.762;2024-03-07T04:57:35;99862.91;;;8.43;100.00
28630;BME280;15817;42.130;24.762;2024-03-07T05:00:17;99867.31;;;8.44;100.00
28630;BME280;15817;42.130;24.762;2024-03-07T05:06:45;99871.78;;;8.49;100.00
28630;BME280;15817;42.130;24.762;2024-03-07T05:09:17;99862.88;;;8.33;100.00
28630;BME280;15817;42.130;24.762;2024-03-07T05:11:50;99872.66;;;8.41;100.00
28630;BME280;15817;42.130;24.762;2024-03-07T05:14:24;99873.53;;;8.41;100.00
28630;BME280;15817;42.130;24.762;2024-03-07T05:17:01;99872.63;;;8.38;100.00
28630;BME280;15817;42.130;24.762;2024-03-07T05:19:34;99877.06;;;8.40;100.00
28630;BME280;15817;42.130;24.762;2024-03-07T05:22:12;99876.19;;;8.41;100.00
28630;BME280;15817;42.130;24.762;2024-03-07T05:24:50;99871.78;;;8.42;100.00
28630;BME280;15817;42.130;24.762;2024-03-07T05:27:16;99862.03;;;8.39;100.00
28630;BME280;15817;42.130;24.762;2024-03-07T05:29:46;99875.31;;;8.42;100.00
28630;BME280;15817;42.130;24.762;2024-03-07T05:32:34;99869.03;;;8.31;100.00
28630;BME280;15817;42.130;24.762;2024-03-07T05:35:01;99877.91;;;8.36;100.00
28630;BME280;15817;42.130;24.762;2024-03-07T05:37:48;99885.84;;;8.33;100.00
28630;BME280;15817;42.130;24.762;2024-03-07T05:40:24;99887.56;;;8.25;100.00
28630;BME280;15817;42.130;24.762;2024-03-07T05:43:53;99890.25;;;8.29;100.00
28630;BME280;15817;42.130;24.762;2024-03-07T05:46:47;99892.94;;;8.37;100.00
28630;BME280;15817;42.130;24.762;2024-03-07T05:49:33;99888.50;;;8.33;100.00
28630;BME280;15817;42.130;24.762;2024-03-07T05:55:21;99907.88;;;8.26;100.00
28630;BME280;15817;42.130;24.762;2024-03-07T05:57:58;99925.53;;;8.22;100.00
28630;BME280;15817;42.130;24.762;2024-03-07T06:00:35;99924.69;;;8.28;100.00
28630;BME280;15817;42.130;24.762;2024-03-07T06:04:06;99911.44;;;8.28;100.00
28630;BME280;15817;42.130;24.762;2024-03-07T06:06:57;99916.75;;;8.32;100.00
28630;BME280;15817;42.130;24.762;2024-03-07T06:09:55;99926.47;;;8.32;100.00
28630;BME280;15817;42.130;24.762;2024-03-07T06:15:50;99945.00;;;8.27;100.00
28630;BME280;15817;42.130;24.762;2024-03-07T06:18:24;99931.72;;;8.23;100.00
28630;BME280;15817;42.130;24.762;2024-03-07T06:20:50;99934.34;;;8.21;100.00
28630;BME280;15817;42.130;24.762;2024-03-07T06:23:19;99937.91;;;8.23;100.00
28630;BME280;15817;42.130;24.762;2024-03-07T06:26:12;99937.94;;;8.29;100.00
28630;BME280;15817;42.130;24.762;2024-03-07T06:28:43;99932.66;;;8.32;100.00
28630;BME280;15817;42.130;24.762;2024-03-07T06:31:24;99927.41;;;8.40;100.00
28630;BME280;15817;42.130;24.762;2024-03-07T06:33:53;99929.13;;;8.32;100.00
28630;BME280;15817;42.130;24.762;2024-03-07T06:36:26;99930.91;;;8.33;100.00
28630;BME280;15817;42.130;24.762;2024-03-07T06:39:01;99936.25;;;8.39;100.00
28630;BME280;15817;42.130;24.762;2024-03-07T06:41:41;99930.91;;;8.33;100.00
28630;BME280;15817;42.130;24.762;2024-03-07T06:44:16;99927.34;;;8.29;100.00
28630;BME280;15817;42.130;24.762;2024-03-07T06:46:51;99930.91;;;8.33;100.00
28630;BME280;15817;42.130;24.762;2024-03-07T06:49:22;99929.13;;;8.33;100.00
28630;BME280;15817;42.130;24.762;2024-03-07T06:52:10;99919.41;;;8.34;100.00
28630;BME280;15817;42.130;24.762;2024-03-07T06:54:49;99932.69;;;8.37;100.00
28630;BME280;15817;42.130;24.762;2024-03-07T06:57:52;99939.75;;;8.43;100.00
28630;BME280;15817;42.130;24.762;2024-03-07T07:00:32;99936.25;;;8.42;100.00
28630;BME280;15817;42.130;24.762;2024-03-07T07:03:23;99930.94;;;8.39;100.00
28630;BME280;15817;42.130;24.762;2024-03-07T07:06:09;99934.47;;;8.38;100.00
28630;BME280;15817;42.130;24.762;2024-03-07T07:08:39;99942.38;;;8.33;100.00
28630;BME280;15817;42.130;24.762;2024-03-07T07:11:08;99942.41;;;8.38;100.00
28630;BME280;15817;42.130;24.762;2024-03-07T07:13:34;99933.59;;;8.39;100.00
28630;BME280;15817;42.130;24.762;2024-03-07T07:16:10;99945.09;;;8.46;100.00
28630;BME280;15817;42.130;24.762;2024-03-07T07:18:41;99928.28;;;8.41;100.00
28630;BME280;15817;42.130;24.762;2024-03-07T07:21:14;99933.59;;;8.44;100.00
28630;BME280;15817;42.130;24.762;2024-03-07T07:23:44;99937.97;;;8.35;100.00
28630;BME280;15817;42.130;24.762;2024-03-07T07:26:12;99936.25;;;8.41;100.00
28630;BME280;15817;42.130;24.762;2024-03-07T07:28:43;99945.97;;;8.46;100.00
28630;BME280;15817;42.130;24.762;2024-03-07T07:31:30;99949.50;;;8.47;100.00
28630;BME280;15817;42.130;24.762;2024-03-07T07:34:05;99941.56;;;8.41;100.00
28630;BME280;15817;42.130;24.762;2024-03-07T07:36:36;99946.81;;;8.36;100.00
28630;BME280;15817;42.130;24.762;2024-03-07T07:39:18;99954.78;;;8.36;100.00
28630;BME280;15817;42.130;24.762;2024-03-07T07:41:47;99952.97;;;8.30;100.00
28630;BME280;15817;42.130;24.762;2024-03-07T07:44:20;99970.66;;;8.34;100.00
28630;BME280;15817;42.130;24.762;2024-03-07T07:46:47;99976.00;;;8.44;100.00
28630;BME280;15817;42.130;24.762;2024-03-07T07:49:18;99959.22;;;8.40;100.00
28630;BME280;15817;42.130;24.762;2024-03-07T07:55:44;99963.72;;;8.61;100.00
28630;BME280;15817;42.130;24.762;2024-03-07T07:58:16;99955.69;;;8.47;100.00
28630;BME280;15817;42.130;24.762;2024-03-07T08:01:08;99975.13;;;8.48;100.00
28630;BME280;15817;42.130;24.762;2024-03-07T08:03:47;99968.06;;;8.48;100.00
28630;BME280;15817;42.130;24.762;2024-03-07T08:06:13;99964.53;;;8.49;100.00
28630;BME280;15817;42.130;24.762;2024-03-07T08:08:57;99974.28;;;8.56;100.00
28630;BME280;15817;42.130;24.762;2024-03-07T08:11:28;99969.00;;;8.53;100.00
28630;BME280;15817;42.130;24.762;2024-03-07T08:14:10;99974.28;;;8.58;100.00
28630;BME280;15817;42.130;24.762;2024-03-07T08:16:36;99975.22;;;8.64;100.00
28630;BME280;15817;42.130;24.762;2024-03-07T08:19:20;99981.38;;;8.68;100.00
28630;BME280;15817;42.130;24.762;2024-03-07T08:22:06;99969.91;;;8.64;100.00
28630;BME280;15817;42.130;24.762;2024-03-07T09:06:33;100008.78;;;8.65;100.00
28630;BME280;15817;42.130;24.762;2024-03-07T09:09:18;100007.94;;;8.71;100.00
28630;BME280;15817;42.130;24.762;2024-03-07T09:12:00;100008.81;;;8.73;100.00
28630;BME280;15817;42.130;24.762;2024-03-07T09:14:32;100017.69;;;8.83;100.00
28630;BME280;15817;42.130;24.762;2024-03-07T09:17:04;100023.88;;;8.83;100.00
28630;BME280;15817;42.130;24.762;2024-03-07T09:20:08;100017.69;;;8.75;100.00
28630;BME280;15817;42.130;24.762;2024-03-07T09:23:12;100031.84;;;8.83;100.00
28630;BME280;15817;42.130;24.762;2024-03-07T09:26:15;100024.78;;;8.84;100.00
28630;BME280;15817;42.130;24.762;2024-03-07T09:28:49;100027.44;;;8.87;100.00
28630;BME280;15817;42.130;24.762;2024-03-07T09:34:23;100024.75;;;8.81;100.00
28630;BME280;15817;42.130;24.762;2024-03-07T09:37:08;100022.09;;;8.76;100.00
28630;BME280;15817;42.130;24.762;2024-03-07T09:39:46;100025.63;;;8.80;100.00
28630;BME280;15817;42.130;24.762;2024-03-07T09:42:43;100038.03;;;8.84;100.00
28630;BME280;15817;42.130;24.762;2024-03-07T09:45:21;100030.06;;;8.76;100.00
28630;BME280;15817;42.130;24.762;2024-03-07T09:47:52;100039.78;;;8.76;100.00
28630;BME280;15817;42.130;24.762;2024-03-07T09:50:22;100031.81;;;8.74;100.00
28630;BME280;15817;42.130;24.762;2024-03-07T09:53:06;100037.94;;;8.65;100.00
28630;BME280;15817;42.130;24.762;2024-03-07T09:55:40;100039.72;;;8.66;100.00
28630;BME280;15817;42.130;24.762;2024-03-07T09:58:22;100055.69;;;8.74;100.00
28630;BME280;15817;42.130;24.762;2024-03-07T10:01:39;100047.69;;;8.68;100.00
28630;BME280;15817;42.130;24.762;2024-03-07T10:07:48;100049.44;;;8.67;100.00
28630;BME280;15817;42.130;24.762;2024-03-07T10:10:20;100041.50;;;8.64;100.00
28630;BME280;15817;42.130;24.762;2024-03-07T10:12:52;100050.31;;;8.62;100.00
28630;BME280;15817;42.130;24.762;2024-03-07T10:16:19;100048.50;;;8.50;100.00
28630;BME280;15817;42.130;24.762;2024-03-07T10:19:14;100048.47;;;8.47;100.00
28630;BME280;15817;42.130;24.762;2024-03-07T10:22:01;100043.13;;;8.43;100.00
28630;BME280;15817;42.130;24.762;2024-03-07T10:24:51;100043.13;;;8.44;100.00
28630;BME280;15817;42.130;24.762;2024-03-07T10:28:21;100068.81;;;8.54;100.00
28630;BME280;15817;42.130;24.762;2024-03-07T10:39:28;100047.53;;;8.39;100.00
28630;BME280;15817;42.130;24.762;2024-03-07T10:42:39;100052.00;;;8.42;100.00
28630;BME280;15817;42.130;24.762;2024-03-07T10:45:50;100059.03;;;8.43;100.00
28630;BME280;15817;42.130;24.762;2024-03-07T11:02:48;100052.16;;;8.75;100.00
28630;BME280;15817;42.130;24.762;2024-03-07T11:08:49;100045.88;;;8.58;100.00
28630;BME280;15817;42.130;24.762;2024-03-07T11:11:19;100046.72;;;8.51;100.00
28630;BME280;15817;42.130;24.762;2024-03-07T11:14:01;100050.25;;;8.54;100.00
28630;BME280;15817;42.130;24.762;2024-03-07T11:16:34;100044.97;;;8.53;100.00
28630;BME280;15817;42.130;24.762;2024-03-07T11:21:51;100038.75;;;8.48;100.00
28630;BME280;15817;42.130;24.762;2024-03-07T11:25:01;100032.56;;;8.49;100.00
28630;BME280;15817;42.130;24.762;2024-03-07T11:28:00;100022.84;;;8.46;100.00
28630;BME280;15817;42.130;24.762;2024-03-07T11:30:36;100019.31;;;8.47;100.00
28630;BME280;15817;42.130;24.762;2024-03-07T11:33:06;100027.28;;;8.50;100.00
28630;BME280;15817;42.130;24.762;2024-03-07T11:35:36;100015.81;;;8.51;100.00
28630;BME280;15817;42.130;24.762;2024-03-07T11:38:02;100022.00;;;8.56;100.00
28630;BME280;15817;42.130;24.762;2024-03-07T11:40:51;100013.16;;;8.57;100.00
28630;BME280;15817;42.130;24.762;2024-03-07T11:43:19;100009.63;;;8.51;100.00
28630;BME280;15817;42.130;24.762;2024-03-07T11:45:57;100011.41;;;8.58;100.00
28630;BME280;15817;42.130;24.762;2024-03-07T11:48:25;99996.38;;;8.51;100.00
28630;BME280;15817;42.130;24.762;2024-03-07T11:50:53;99993.72;;;8.52;100.00
28630;BME280;15817;42.130;24.762;2024-03-07T11:53:23;99980.47;;;8.55;100.00
28630;BME280;15817;42.130;24.762;2024-03-07T11:55:51;99969.88;;;8.58;100.00
28630;BME280;15817;42.130;24.762;2024-03-07T11:58:24;99971.69;;;8.64;100.00
28630;BME280;15817;42.130;24.762;2024-03-07T12:00:51;99966.34;;;8.58;100.00
28630;BME280;15817;42.130;24.762;2024-03-07T12:03:35;99965.47;;;8.62;100.00
28630;BME280;15817;42.130;24.762;2024-03-07T12:06:01;99978.75;;;8.65;100.00
28630;BME280;15817;42.130;24.762;2024-03-07T12:08:29;99990.22;;;8.62;100.00
28630;BME280;15817;42.130;24.762;2024-03-07T12:10:55;99992.00;;;8.62;100.00
28630;BME280;15817;42.130;24.762;2024-03-07T12:13:22;99984.00;;;8.56;100.00
28630;BME280;15817;42.130;24.762;2024-03-07T12:15:50;99981.34;;;8.57;100.00
28630;BME280;15817;42.130;24.762;2024-03-07T12:18:24;99982.25;;;8.58;100.00
28630;BME280;15817;42.130;24.762;2024-03-07T12:20:55;99984.91;;;8.61;100.00
28630;BME280;15817;42.130;24.762;2024-03-07T12:23:34;99976.03;;;8.56;100.00
28630;BME280;15817;42.130;24.762;2024-03-07T12:26:20;99974.28;;;8.55;100.00
28630;BME280;15817;42.130;24.762;2024-03-07T12:29:25;99974.31;;;8.61;100.00
28630;BME280;15817;42.130;24.762;2024-03-07T12:31:56;99967.16;;;8.45;100.00
28630;BME280;15817;42.130;24.762;2024-03-07T12:38:16;99968.03;;;8.44;100.00
28630;BME280;15817;42.130;24.762;2024-03-07T12:44:18;99976.00;;;8.47;100.00
28630;BME280;15817;42.130;24.762;2024-03-07T12:46:52;99964.53;;;8.46;100.00
28630;BME280;15817;42.130;24.762;2024-03-07T12:49:39;99968.09;;;8.51;100.00
28630;BME280;15817;42.130;24.762;2024-03-07T12:52:19;99977.78;;;8.48;100.00
28630;BME280;15817;42.130;24.762;2024-03-07T12:54:53;99982.25;;;8.53;100.00
28630;BME280;15817;42.130;24.762;2024-03-07T12:57:29;99978.69;;;8.56;100.00
28630;BME280;15817;42.130;24.762;2024-03-07T13:00:00;99968.09;;;8.57;100.00
28630;BME280;15817;42.130;24.762;2024-03-07T13:05:44;99982.25;;;8.58;100.00
28630;BME280;15817;42.130;24.762;2024-03-07T13:08:25;99979.56;;;8.50;100.00
28630;BME280;15817;42.130;24.762;2024-03-07T13:10:56;99972.50;;;8.49;100.00
28630;BME280;15817;42.130;24.762;2024-03-07T13:13:58;99969.00;;;8.58;100.00
28630;BME280;15817;42.130;24.762;2024-03-07T13:16:24;99972.53;;;8.61;100.00
28630;BME280;15817;42.130;24.762;2024-03-07T13:19:10;99964.59;;;8.63;100.00
28630;BME280;15817;42.130;24.762;2024-03-07T13:21:56;99952.22;;;8.60;100.00
28630;BME280;15817;42.130;24.762;2024-03-07T13:24:51;99951.34;;;8.67;100.00
28630;BME280;15817;42.130;24.762;2024-03-07T13:28:14;99969.06;;;8.76;100.00
28630;BME280;15817;42.130;24.762;2024-03-07T13:31:12;99960.16;;;8.66;100.00
28630;BME280;15817;42.130;24.762;2024-03-07T13:37:34;99947.81;;;8.68;100.00
28630;BME280;15817;42.130;24.762;2024-03-07T13:40:19;99969.94;;;8.75;100.00
28630;BME280;15817;42.130;24.762;2024-03-07T13:43:36;99964.63;;;8.78;100.00
28630;BME280;15817;42.130;24.762;2024-03-07T13:46:20;99956.69;;;8.83;100.00
28630;BME280;15817;42.130;24.762;2024-03-07T13:49:03;99954.06;;;8.84;100.00
28630;BME280;15817;42.130;24.762;2024-03-07T13:51:49;99969.09;;;8.88;100.00
28630;BME280;15817;42.130;24.762;2024-03-07T13:54:22;99955.81;;;8.91;100.00
28630;BME280;15817;42.130;24.762;2024-03-07T14:00:36;99954.94;;;9.00;100.00
28630;BME280;15817;42.130;24.762;2024-03-07T14:31:24;99939.91;;;8.90;100.00
28630;BME280;15817;42.130;24.762;2024-03-07T14:34:19;99941.69;;;8.97;100.00
28630;BME280;15817;42.130;24.762;2024-03-07T14:37:22;99940.81;;;8.96;100.00
28630;BME280;15817;42.130;24.762;2024-03-07T14:43:04;99936.38;;;8.91;100.00
28630;BME280;15817;42.130;24.762;2024-03-07T14:46:14;99939.91;;;8.91;100.00
28630;BME280;15817;42.130;24.762;2024-03-07T14:48:55;99943.44;;;8.89;100.00
28630;BME280;15817;42.130;24.762;2024-03-07T14:51:33;99937.25;;;8.85;100.00
28630;BME280;15817;42.130;24.762;2024-03-07T14:54:11;99929.31;;;8.85;100.00
28630;BME280;15817;42.130;24.762;2024-03-07T14:59:48;99931.03;;;8.77;100.00
28630;BME280;15817;42.130;24.762;2024-03-07T15:02:24;99918.66;;;8.79;100.00
28630;BME280;15817;42.130;24.762;2024-03-07T15:05:17;99928.41;;;8.83;100.00
28630;BME280;15817;42.130;24.762;2024-03-07T15:07:54;99947.88;;;8.87;100.00
28630;BME280;15817;42.130;24.762;2024-03-07T15:10:56;99936.34;;;8.82;100.00
28630;BME280;15817;42.130;24.762;2024-03-07T15:13:34;99945.19;;;8.76;100.00
28630;BME280;15817;42.130;24.762;2024-03-07T15:16:21;99949.59;;;8.74;100.00
28630;BME280;15817;42.130;24.762;2024-03-07T15:19:12;99960.22;;;8.73;100.00
28630;BME280;15817;42.130;24.762;2024-03-07T15:25:27;99965.53;;;8.76;100.00
28630;BME280;15817;42.130;24.762;2024-03-07T15:27:57;99952.25;;;8.73;100.00
28630;BME280;15817;42.130;24.762;2024-03-07T15:30:32;99954.91;;;8.76;100.00
28630;BME280;15817;42.130;24.762;2024-03-07T15:33:12;99971.72;;;8.82;100.00
28630;BME280;15817;42.130;24.762;2024-03-07T15:35:50;99961.09;;;8.82;100.00
28630;BME280;15817;42.130;24.762;2024-03-07T15:38:29;99955.78;;;8.78;100.00
28630;BME280;15817;42.130;24.762;2024-03-07T15:41:29;99950.50;;;8.79;100.00
28630;BME280;15817;42.130;24.762;2024-03-07T15:44:09;99964.66;;;8.84;100.00
28630;BME280;15817;42.130;24.762;2024-03-07T15:55:10;99987.63;;;8.79;100.00
28630;BME280;15817;42.130;24.762;2024-03-07T15:58:02;99994.69;;;8.79;100.00
28630;BME280;15817;42.130;24.762;2024-03-07T16:01:20;99984.06;;;8.73;100.00
28630;BME280;15817;42.130;24.762;2024-03-07T16:07:23;99984.03;;;8.68;100.00
28630;BME280;15817;42.130;24.762;2024-03-07T16:10:45;99976.97;;;8.64;100.00
28630;BME280;15817;42.130;24.762;2024-03-07T16:13:39;99988.47;;;8.63;100.00
28630;BME280;15817;42.130;24.762;2024-03-07T16:16:40;99987.56;;;8.61;100.00
28630;BME280;15817;42.130;24.762;2024-03-07T16:19:27;99982.25;;;8.59;100.00
28630;BME280;15817;42.130;24.762;2024-03-07T16:22:28;99977.84;;;8.60;100.00
28630;BME280;15817;42.130;24.762;2024-03-07T16:25:10;99974.31;;;8.61;100.00
28630;BME280;15817;42.130;24.762;2024-03-07T16:30:53;99976.06;;;8.59;100.00
28630;BME280;15817;42.130;24.762;2024-03-07T16:33:40;99969.84;;;8.51;100.00
28630;BME280;15817;42.130;24.762;2024-03-07T16:36:16;99964.53;;;8.48;100.00
28630;BME280;15817;42.130;24.762;2024-03-07T16:38:51;99973.41;;;8.53;100.00
28630;BME280;15817;42.130;24.762;2024-03-07T16:41:39;99967.19;;;8.49;100.00
28630;BME280;15817;42.130;24.762;2024-03-07T16:47:48;99983.97;;;8.47;100.00
28630;BME280;15817;42.130;24.762;2024-03-07T16:53:45;99998.13;;;8.49;100.00
28630;BME280;15817;42.130;24.762;2024-03-07T16:57:27;100003.41;;;8.47;100.00
28630;BME280;15817;42.130;24.762;2024-03-07T16:59:56;99997.19;;;8.45;100.00
28630;BME280;15817;42.130;24.762;2024-03-07T17:12:31;100036.97;;;8.47;100.00
28630;BME280;15817;42.130;24.762;2024-03-07T17:18:54;100015.72;;;8.36;100.00
28630;BME280;15817;42.130;24.762;2024-03-07T17:21:50;100029.00;;;8.45;100.00
28630;BME280;15817;42.130;24.762;2024-03-07T17:35:22;100037.84;;;8.47;100.00